createdAt,value
2024-02-21T00:00:07.471Z,99076.47
2024-02-21T00:02:36.791Z,99070.59
2024-02-21T00:05:10.438Z,99074.56
2024-02-21T00:07:40.356Z,99064.53
2024-02-21T00:10:11.404Z,99068.69
2024-02-21T00:12:48.154Z,99073.34
2024-02-21T00:15:19.894Z,99060.66
2024-02-21T00:17:50.353Z,99055.81
2024-02-21T00:20:22.517Z,99052.38
2024-02-21T00:22:53.121Z,99045.84
2024-02-21T00:25:23.626Z,99050.38
2024-02-21T00:27:55.147Z,99043.34
2024-02-21T00:30:27.458Z,99038.28
2024-02-21T00:32:56.881Z,99037.19
2024-02-21T00:35:29.109Z,99044.75
2024-02-21T00:38:01.218Z,99036.56
2024-02-21T00:40:31.207Z,99033.25
2024-02-21T00:43:05.179Z,99035.72
2024-02-21T00:45:34.315Z,99032.84
2024-02-21T00:48:06.681Z,99026.06
2024-02-21T00:50:38.940Z,99028.28
2024-02-21T00:53:11.282Z,99017.78
2024-02-21T00:55:43.930Z,99019.72
2024-02-21T00:58:14.325Z,99011.00
2024-02-21T01:00:49.486Z,99013.66
2024-02-21T01:03:18.801Z,99011.16
2024-02-21T01:05:52.148Z,99002.78
2024-02-21T01:08:21.340Z,98999.94
2024-02-21T01:10:53.743Z,98993.97
2024-02-21T01:13:25.279Z,98990.94
2024-02-21T01:15:57.482Z,98989.19
2024-02-21T01:18:27.735Z,98986.41
2024-02-21T01:21:01.616Z,98985.97
2024-02-21T01:23:32.972Z,98977.31
2024-02-21T01:26:03.072Z,98982.66
2024-02-21T01:28:32.991Z,98972.63
2024-02-21T01:31:05.013Z,98976.78
2024-02-21T01:33:36.804Z,98972.91
2024-02-21T01:36:11.977Z,98972.63
2024-02-21T01:38:41.560Z,98976.78
2024-02-21T01:41:12.199Z,98975.66
2024-02-21T01:43:41.074Z,98969.75
2024-02-21T01:46:13.543Z,98962.69
2024-02-21T01:48:42.935Z,98960.94
2024-02-21T01:51:16.570Z,98962.88
2024-02-21T01:53:48.003Z,98960.47
2024-02-21T01:56:16.947Z,98946.97
2024-02-21T01:58:47.821Z,98950.72
2024-02-21T02:01:21.754Z,98955.84
2024-02-21T02:03:54.254Z,98951.53
2024-02-21T02:06:25.255Z,98947.94
2024-02-21T02:08:54.793Z,98945.94
2024-02-21T02:11:23.978Z,98952.75
2024-02-21T02:13:55.096Z,98952.28
2024-02-21T02:16:24.201Z,98950.00
2024-02-21T02:18:53.962Z,98944.19
2024-02-21T02:21:33.759Z,98940.59
2024-02-21T02:24:06.053Z,98941.78
2024-02-21T02:26:35.145Z,98939.94
2024-02-21T02:29:04.502Z,98930.94
2024-02-21T02:31:36.059Z,98932.59
2024-02-21T02:34:05.493Z,98920.56
2024-02-21T02:36:35.678Z,98922.47
2024-02-21T02:39:06.513Z,98910.63
2024-02-21T02:41:37.879Z,98907.97
2024-02-21T02:44:07.645Z,98901.53
2024-02-21T02:46:36.623Z,98894.63
2024-02-21T02:49:08.689Z,98890.50
2024-02-21T02:51:39.232Z,98888.41
2024-02-21T02:54:10.451Z,98894.13
2024-02-21T02:56:42.569Z,98886.19
2024-02-21T02:59:14.932Z,98888.66
2024-02-21T03:01:47.219Z,98881.22
2024-02-21T03:04:17.892Z,98882.94
2024-02-21T03:06:49.853Z,98878.25
2024-02-21T03:09:20.109Z,98883.41
2024-02-21T03:11:49.291Z,98884.97
2024-02-21T03:14:20.372Z,98889.22
2024-02-21T03:16:50.196Z,98890.69
2024-02-21T03:19:20.016Z,98881.22
2024-02-21T03:21:50.728Z,98877.34
2024-02-21T03:24:26.604Z,98879.53
2024-02-21T03:26:56.241Z,98872.09
2024-02-21T03:29:28.404Z,98865.59
2024-02-21T03:32:10.920Z,98874.50
2024-02-21T03:34:41.280Z,98878.84
2024-02-21T03:37:10.525Z,98873.88
2024-02-21T03:39:44.311Z,98871.47
2024-02-21T03:42:14.817Z,98871.84
2024-02-21T03:44:45.183Z,98875.06
2024-02-21T03:47:15.730Z,98869.53
2024-02-21T03:49:46.284Z,98871.69
2024-02-21T03:52:15.703Z,98864.88
2024-02-21T03:54:46.579Z,98856.75
2024-02-21T03:57:18.045Z,98858.50
2024-02-21T03:59:50.639Z,98853.34
2024-02-21T04:02:22.411Z,98848.53
2024-02-21T04:04:51.407Z,98837.41
2024-02-21T04:07:24.344Z,98832.19
2024-02-21T04:09:57.161Z,98832.53
2024-02-21T04:12:28.105Z,98834.34
2024-02-21T04:14:59.271Z,98830.44
2024-02-21T04:17:29.244Z,98828.78
2024-02-21T04:20:06.953Z,98834.59
2024-02-21T04:22:39.496Z,98833.88
2024-02-21T04:25:22.781Z,98841.22
2024-02-21T04:27:52.588Z,98848.09
2024-02-21T04:30:22.491Z,98844.44
2024-02-21T04:32:51.777Z,98848.97
2024-02-21T04:35:23.529Z,98846.03
2024-02-21T04:37:53.126Z,98834.75
2024-02-21T04:40:25.664Z,98831.50
2024-02-21T04:42:59.652Z,98833.19
2024-02-21T04:45:29.762Z,98824.72
2024-02-21T04:48:06.040Z,98822.69
2024-02-21T04:50:37.299Z,98828.03
2024-02-21T04:53:06.391Z,98825.25
2024-02-21T04:55:37.553Z,98826.19
2024-02-21T04:58:06.408Z,98816.91
2024-02-21T05:00:35.991Z,98807.09
2024-02-21T05:03:06.411Z,98813.75
2024-02-21T05:05:35.729Z,98805.75
2024-02-21T05:08:05.139Z,98802.34
2024-02-21T05:10:35.286Z,98789.78
2024-02-21T05:13:06.081Z,98772.72
2024-02-21T05:15:35.633Z,98781.13
2024-02-21T05:18:06.334Z,98776.66
2024-02-21T05:20:37.110Z,98780.97
2024-02-21T05:23:07.253Z,98778.75
2024-02-21T05:25:38.980Z,98784.84
2024-02-21T05:28:12.462Z,98781.63
2024-02-21T05:30:42.608Z,98771.31
2024-02-21T05:33:11.629Z,98774.00
2024-02-21T05:35:41.704Z,98774.66
2024-02-21T05:38:13.264Z,98770.19
2024-02-21T05:40:43.587Z,98778.09
2024-02-21T05:43:15.832Z,98777.47
2024-02-21T05:45:46.845Z,98775.28
2024-02-21T05:48:16.403Z,98770.69
2024-02-21T05:50:47.136Z,98764.25
2024-02-21T05:53:16.549Z,98765.00
2024-02-21T05:55:45.822Z,98765.44
2024-02-21T05:58:17.752Z,98769.78
2024-02-21T06:00:46.797Z,98771.00
2024-02-21T06:03:18.936Z,98771.06
2024-02-21T06:05:50.878Z,98767.31
2024-02-21T06:08:20.372Z,98762.34
2024-02-21T06:10:55.305Z,98763.13
2024-02-21T06:13:26.445Z,98760.91
2024-02-21T06:15:55.852Z,98761.25
2024-02-21T06:18:26.522Z,98750.81
2024-02-21T06:20:57.886Z,98751.63
2024-02-21T06:23:29.691Z,98749.16
2024-02-21T06:25:59.199Z,98753.81
2024-02-21T06:28:30.614Z,98757.44
2024-02-21T06:31:00.443Z,98762.00
2024-02-21T06:33:33.469Z,98768.03
2024-02-21T06:36:20.175Z,98774.09
2024-02-21T06:38:59.468Z,98773.84
2024-02-21T06:41:29.028Z,98778.91
2024-02-21T06:44:00.008Z,98785.97
2024-02-21T06:46:37.238Z,98785.13
2024-02-21T06:49:10.013Z,98779.75
2024-02-21T06:51:42.082Z,98775.41
2024-02-21T06:54:14.296Z,98772.47
2024-02-21T06:56:46.047Z,98772.09
2024-02-21T06:59:19.060Z,98773.75
2024-02-21T07:01:53.325Z,98765.59
2024-02-21T07:04:25.133Z,98762.75
2024-02-21T07:06:57.678Z,98760.97
2024-02-21T07:09:36.484Z,98758.78
2024-02-21T07:12:06.368Z,98759.16
2024-02-21T07:14:38.170Z,98761.09
2024-02-21T07:17:07.473Z,98762.72
2024-02-21T07:19:37.656Z,98765.09
2024-02-21T07:22:14.346Z,98766.38
2024-02-21T07:24:48.177Z,98768.31
2024-02-21T07:27:32.193Z,98761.94
2024-02-21T07:30:09.290Z,98759.28
2024-02-21T07:32:40.008Z,98751.91
2024-02-21T07:35:12.037Z,98757.25
2024-02-21T07:37:41.869Z,98744.81
2024-02-21T07:40:16.948Z,98745.91
2024-02-21T07:42:51.527Z,98752.34
2024-02-21T07:45:27.958Z,98742.25
2024-02-21T07:47:59.072Z,98733.50
2024-02-21T07:50:30.703Z,98734.69
2024-02-21T07:53:00.525Z,98727.09
2024-02-21T07:55:32.470Z,98730.97
2024-02-21T07:58:04.732Z,98739.69
2024-02-21T08:00:35.514Z,98736.06
2024-02-21T08:03:06.175Z,98734.66
2024-02-21T08:05:37.065Z,98734.00
2024-02-21T08:08:08.682Z,98736.50
2024-02-21T08:10:38.644Z,98726.28
2024-02-21T08:13:08.624Z,98714.63
2024-02-21T08:15:42.692Z,98712.91
2024-02-21T08:18:12.622Z,98702.69
2024-02-21T08:20:44.176Z,98704.97
2024-02-21T08:23:15.258Z,98696.75
2024-02-21T08:25:51.872Z,98686.44
2024-02-21T08:28:24.261Z,98702.69
2024-02-21T08:30:55.863Z,98699.09
2024-02-21T08:33:26.834Z,98702.25
2024-02-21T08:35:56.895Z,98707.28
2024-02-21T08:38:26.865Z,98706.47
2024-02-21T08:40:56.599Z,98706.16
2024-02-21T08:43:29.878Z,98694.50
2024-02-21T08:46:03.930Z,98690.47
2024-02-21T08:48:35.616Z,98680.94
2024-02-21T08:51:07.397Z,98678.28
2024-02-21T08:53:36.736Z,98669.25
2024-02-21T08:56:07.296Z,98676.84
2024-02-21T08:58:39.406Z,98678.66
2024-02-21T09:01:14.441Z,98681.84
2024-02-21T09:03:45.693Z,98682.47
2024-02-21T09:06:18.244Z,98692.91
2024-02-21T09:08:47.326Z,98688.91
2024-02-21T09:11:17.697Z,98685.59
2024-02-21T09:13:47.976Z,98681.13
2024-02-21T09:16:21.372Z,98679.56
2024-02-21T09:18:51.706Z,98670.94
2024-02-21T09:21:25.384Z,98669.88
2024-02-21T09:24:00.151Z,98675.47
2024-02-21T09:26:32.372Z,98681.25
2024-02-21T09:29:05.696Z,98673.34
2024-02-21T09:31:36.234Z,98667.41
2024-02-21T09:34:06.386Z,98669.03
2024-02-21T09:36:38.478Z,98672.75
2024-02-21T09:39:08.850Z,98674.63
2024-02-21T09:41:46.825Z,98675.19
2024-02-21T09:44:20.560Z,98670.91
2024-02-21T09:46:58.481Z,98665.72
2024-02-21T09:49:34.011Z,98671.25
2024-02-21T09:52:06.228Z,98659.78
2024-02-21T09:54:36.757Z,98657.59
2024-02-21T09:57:06.985Z,98656.38
2024-02-21T09:59:37.177Z,98647.56
2024-02-21T10:02:08.888Z,98645.09
2024-02-21T10:04:40.060Z,98644.00
2024-02-21T10:07:10.558Z,98635.22
2024-02-21T10:09:44.859Z,98629.13
2024-02-21T10:12:15.103Z,98623.59
2024-02-21T10:14:44.922Z,98615.38
2024-02-21T10:17:20.568Z,98623.00
2024-02-21T10:19:51.660Z,98616.06
2024-02-21T10:22:22.514Z,98616.41
2024-02-21T10:24:52.856Z,98598.91
2024-02-21T10:27:28.312Z,98608.03
2024-02-21T10:29:58.753Z,98601.25
2024-02-21T10:32:31.968Z,98607.16
2024-02-21T10:35:07.235Z,98600.53
2024-02-21T10:37:37.641Z,98594.63
2024-02-21T10:40:09.165Z,98593.50
2024-02-21T10:42:41.311Z,98595.16
2024-02-21T10:45:13.714Z,98591.00
2024-02-21T10:47:53.996Z,98578.44
2024-02-21T10:50:27.648Z,98577.75
2024-02-21T10:53:11.079Z,98569.75
2024-02-21T10:55:44.203Z,98573.91
2024-02-21T10:58:16.887Z,98575.69
2024-02-21T11:00:47.205Z,98565.16
2024-02-21T11:03:18.486Z,98562.81
2024-02-21T11:05:51.605Z,98555.72
2024-02-21T11:08:30.870Z,98548.28
2024-02-21T11:11:04.666Z,98548.59
2024-02-21T11:13:39.989Z,98543.34
2024-02-21T11:16:11.716Z,98541.38
2024-02-21T11:18:42.763Z,98531.13
2024-02-21T11:21:13.265Z,98517.97
2024-02-21T11:23:43.483Z,98508.25
2024-02-21T11:26:22.966Z,98499.97
2024-02-21T11:29:02.871Z,98494.91
2024-02-21T11:31:44.812Z,98486.81
2024-02-21T11:34:20.076Z,98487.81
2024-02-21T11:36:53.273Z,98482.75
2024-02-21T11:39:25.943Z,98475.03
2024-02-21T11:42:09.106Z,98474.88
2024-02-21T11:44:41.059Z,98465.91
2024-02-21T11:47:12.948Z,98465.81
2024-02-21T11:49:50.785Z,98463.41
2024-02-21T11:52:24.383Z,98447.22
2024-02-21T11:54:59.198Z,98451.34
2024-02-21T11:57:29.013Z,98450.16
2024-02-21T12:00:03.296Z,98445.19
2024-02-21T12:02:39.146Z,98438.59
2024-02-21T12:05:12.123Z,98441.97
2024-02-21T12:07:42.426Z,98425.06
2024-02-21T12:10:14.207Z,98415.13
2024-02-21T12:12:46.495Z,98406.91
2024-02-21T12:15:16.734Z,98403.84
2024-02-21T12:17:46.736Z,98402.25
2024-02-21T12:20:17.666Z,98395.78
2024-02-21T12:22:47.017Z,98401.94
2024-02-21T12:25:20.742Z,98398.06
2024-02-21T12:27:52.016Z,98390.84
2024-02-21T12:30:22.672Z,98395.44
2024-02-21T12:32:54.014Z,98388.47
2024-02-21T12:35:26.013Z,98382.09
2024-02-21T12:37:58.653Z,98370.97
2024-02-21T12:40:27.895Z,98373.50
2024-02-21T12:42:58.066Z,98363.63
2024-02-21T12:45:32.214Z,98349.97
2024-02-21T12:48:03.170Z,98343.50
2024-02-21T12:50:40.081Z,98334.47
2024-02-21T12:53:19.613Z,98335.72
2024-02-21T12:55:53.034Z,98332.72
2024-02-21T12:58:24.567Z,98329.97
2024-02-21T13:00:55.657Z,98318.19
2024-02-21T13:03:33.160Z,98317.06
2024-02-21T13:06:04.674Z,98305.94
2024-02-21T13:08:35.717Z,98300.84
2024-02-21T13:11:10.795Z,98299.91
2024-02-21T13:13:45.445Z,98292.16
2024-02-21T13:16:15.588Z,98289.16
2024-02-21T13:18:46.421Z,98283.72
2024-02-21T13:21:20.753Z,98279.41
2024-02-21T13:23:52.026Z,98282.41
2024-02-21T13:26:27.774Z,98276.34
2024-02-21T13:28:58.475Z,98268.16
2024-02-21T13:31:27.973Z,98258.81
2024-02-21T13:34:02.589Z,98254.84
2024-02-21T13:36:38.667Z,98251.97
2024-02-21T13:39:08.400Z,98247.69
2024-02-21T13:41:37.567Z,98243.09
2024-02-21T13:44:08.241Z,98231.63
2024-02-21T13:46:38.186Z,98236.25
2024-02-21T13:49:09.980Z,98236.66
2024-02-21T13:51:45.814Z,98227.84
2024-02-21T13:54:18.284Z,98227.53
2024-02-21T13:56:48.818Z,98221.38
2024-02-21T13:59:19.451Z,98222.28
2024-02-21T14:01:50.833Z,98221.09
2024-02-21T14:04:20.084Z,98213.06
2024-02-21T14:06:54.713Z,98205.91
2024-02-21T14:09:30.977Z,98206.44
2024-02-21T14:12:01.848Z,98190.81
2024-02-21T14:14:31.248Z,98203.34
2024-02-21T14:17:01.739Z,98200.03
2024-02-21T14:19:32.855Z,98200.88
2024-02-21T14:22:04.976Z,98192.81
2024-02-21T14:24:36.638Z,98187.28
2024-02-21T14:27:07.359Z,98183.66
2024-02-21T14:29:44.899Z,98187.03
2024-02-21T14:32:16.770Z,98183.28
2024-02-21T14:34:51.541Z,98185.97
2024-02-21T14:37:28.709Z,98180.09
2024-02-21T14:39:59.702Z,98180.84
2024-02-21T14:42:32.357Z,98177.94
2024-02-21T14:45:07.231Z,98173.03
2024-02-21T14:47:38.736Z,98161.59
2024-02-21T14:50:13.111Z,98159.38
2024-02-21T14:52:46.952Z,98155.41
2024-02-21T14:55:19.714Z,98156.72
2024-02-21T14:57:52.227Z,98136.81
2024-02-21T15:00:29.420Z,98134.31
2024-02-21T15:02:59.945Z,98148.78
2024-02-21T15:05:34.034Z,98147.75
2024-02-21T15:08:09.895Z,98149.28
2024-02-21T15:10:39.442Z,98150.09
2024-02-21T15:13:08.362Z,98147.75
2024-02-21T15:15:37.815Z,98145.31
2024-02-21T15:18:07.660Z,98148.16
2024-02-21T15:20:38.286Z,98135.78
2024-02-21T15:23:11.379Z,98125.59
2024-02-21T15:25:41.888Z,98121.75
2024-02-21T15:28:11.716Z,98104.41
2024-02-21T15:30:41.502Z,98096.94
2024-02-21T15:33:13.378Z,98103.94
2024-02-21T15:35:45.285Z,98095.91
2024-02-21T15:38:17.758Z,98081.53
2024-02-21T15:40:48.140Z,98083.97
2024-02-21T15:43:21.812Z,98090.41
2024-02-21T15:45:53.332Z,98094.63
2024-02-21T15:48:26.325Z,98087.84
2024-02-21T15:50:56.974Z,98094.97
2024-02-21T15:53:31.741Z,98089.84
2024-02-21T15:56:04.715Z,98074.53
2024-02-21T15:58:39.611Z,98084.59
2024-02-21T16:01:12.777Z,98081.00
2024-02-21T16:03:46.335Z,98080.53
2024-02-21T16:06:18.507Z,98072.13
2024-02-21T16:08:53.617Z,98059.75
2024-02-21T16:11:28.791Z,98058.13
2024-02-21T16:14:09.118Z,98053.22
2024-02-21T16:16:42.561Z,98057.88
2024-02-21T16:19:18.359Z,98047.75
2024-02-21T16:21:49.975Z,98047.84
2024-02-21T16:24:28.767Z,98039.22
2024-02-21T16:27:05.041Z,98021.34
2024-02-21T16:29:37.944Z,98016.56
2024-02-21T16:32:10.713Z,98000.94
2024-02-21T16:34:49.153Z,98012.94
2024-02-21T16:37:19.751Z,98004.06
2024-02-21T16:39:50.926Z,98001.63
2024-02-21T16:42:29.318Z,98001.75
2024-02-21T16:44:58.754Z,98000.00
2024-02-21T16:47:30.338Z,98006.16
2024-02-21T16:50:05.668Z,97993.25
2024-02-21T16:52:35.957Z,97991.72
2024-02-21T16:58:26.657Z,97977.84
2024-02-21T17:01:10.412Z,97968.13
2024-02-21T17:03:43.440Z,97946.44
2024-02-21T17:06:17.847Z,97929.75
2024-02-21T17:08:48.340Z,97927.28
2024-02-21T17:11:19.301Z,97925.41
2024-02-21T17:13:52.568Z,97933.25
2024-02-21T17:16:26.856Z,97938.50
2024-02-21T17:18:56.049Z,97934.78
2024-02-21T17:21:25.011Z,97932.31
2024-02-21T17:23:54.181Z,97928.97
2024-02-21T17:26:27.488Z,97927.09
2024-02-21T17:28:56.390Z,97921.63
2024-02-21T17:31:29.357Z,97916.94
2024-02-21T17:34:01.151Z,97913.06
2024-02-21T17:36:30.177Z,97910.19
2024-02-21T17:39:01.132Z,97904.91
2024-02-21T17:41:31.669Z,97898.97
2024-02-21T17:46:53.179Z,97905.59
2024-02-21T17:49:22.400Z,97897.19
2024-02-21T17:51:55.322Z,97904.22
2024-02-21T17:54:24.476Z,97907.72
2024-02-21T17:57:00.674Z,97900.13
2024-02-21T17:59:33.300Z,97906.53
2024-02-21T18:02:03.579Z,97907.34
2024-02-21T18:04:32.510Z,97907.09
2024-02-21T18:07:04.193Z,97898.94
2024-02-21T18:09:35.523Z,97889.66
2024-02-21T18:12:12.484Z,97884.81
2024-02-21T18:14:42.794Z,97888.19
2024-02-21T18:17:28.588Z,97881.34
2024-02-21T18:20:11.979Z,97878.53
2024-02-21T18:22:42.917Z,97870.63
2024-02-21T18:25:14.127Z,97877.59
2024-02-21T18:28:30.467Z,97860.72
2024-02-21T18:31:07.801Z,97850.78
2024-02-21T18:33:36.717Z,97855.31
2024-02-21T18:36:15.088Z,97855.56
2024-02-21T18:38:46.300Z,97848.69
2024-02-21T18:41:16.405Z,97856.28
2024-02-21T18:43:47.950Z,97849.19
2024-02-21T18:46:18.035Z,97836.13
2024-02-21T18:48:58.995Z,97827.97
2024-02-21T18:51:29.837Z,97806.63
2024-02-21T18:54:09.674Z,97812.81
2024-02-21T18:56:42.789Z,97809.91
2024-02-21T18:59:23.696Z,97843.34
2024-02-21T19:01:55.769Z,97843.22
2024-02-21T19:07:20.309Z,97836.81
2024-02-21T19:09:53.477Z,97827.03
2024-02-21T19:12:22.456Z,97836.81
2024-02-21T19:14:53.382Z,97825.41
2024-02-21T19:17:25.367Z,97830.53
2024-02-21T19:20:09.233Z,97819.94
2024-02-21T19:22:58.038Z,97828.19
2024-02-21T19:25:36.276Z,97823.50
2024-02-21T19:28:08.224Z,97811.63
2024-02-21T19:30:53.523Z,97803.94
2024-02-21T19:33:35.581Z,97794.16
2024-02-21T19:36:13.509Z,97801.63
2024-02-21T19:38:49.058Z,97797.53
2024-02-21T19:41:26.867Z,97788.38
2024-02-21T19:44:06.568Z,97778.69
2024-02-21T19:46:50.411Z,97783.94
2024-02-21T19:49:23.889Z,97795.34
2024-02-21T19:51:53.766Z,97764.03
2024-02-21T19:54:27.410Z,97772.63
2024-02-21T19:56:56.873Z,97769.13
2024-02-21T19:59:26.451Z,97764.25
2024-02-21T20:02:00.119Z,97754.94
2024-02-21T20:04:29.500Z,97767.28
2024-02-21T20:07:04.253Z,97753.78
2024-02-21T20:09:38.157Z,97745.28
2024-02-21T20:12:18.530Z,97753.41
2024-02-21T20:14:52.746Z,97752.13
2024-02-21T20:17:26.674Z,97754.69
2024-02-21T20:20:13.083Z,97738.47
2024-02-21T20:22:51.826Z,97736.00
2024-02-21T20:25:28.768Z,97706.75
2024-02-21T20:28:11.614Z,97714.91
2024-02-21T20:30:50.929Z,97712.09
2024-02-21T20:33:29.017Z,97711.84
2024-02-21T20:36:03.204Z,97721.16
2024-02-21T20:38:37.912Z,97712.91
2024-02-21T20:41:12.847Z,97704.63
2024-02-21T20:43:53.581Z,97695.84
2024-02-21T20:46:27.295Z,97678.78
2024-02-21T20:49:05.280Z,97675.88
2024-02-21T20:51:42.337Z,97663.97
2024-02-21T20:54:14.432Z,97682.72
2024-02-21T20:56:52.503Z,97671.56
2024-02-21T20:59:24.741Z,97678.31
2024-02-21T21:02:02.620Z,97675.50
2024-02-21T21:04:42.312Z,97663.41
2024-02-21T21:07:11.823Z,97658.97
2024-02-21T21:09:47.531Z,97646.19
2024-02-21T21:12:20.361Z,97649.88
2024-02-21T21:14:49.885Z,97640.00
2024-02-21T21:17:24.010Z,97636.50
2024-02-21T21:19:54.636Z,97630.59
2024-02-21T21:22:27.211Z,97626.97
2024-02-21T21:24:58.821Z,97623.47
2024-02-21T21:27:31.481Z,97613.69
2024-02-21T21:30:04.639Z,97621.59
2024-02-21T21:32:36.627Z,97616.59
2024-02-21T21:35:12.913Z,97615.53
2024-02-21T21:37:43.784Z,97607.50
2024-02-21T21:40:16.631Z,97599.28
2024-02-21T21:42:46.736Z,97598.91
2024-02-21T21:45:18.759Z,97593.91
2024-02-21T21:47:49.549Z,97585.28
2024-02-21T21:50:20.826Z,97586.91
2024-02-21T21:52:51.738Z,97585.88
2024-02-21T21:55:38.606Z,97579.25
2024-02-21T21:58:22.753Z,97580.53
2024-02-21T22:01:07.767Z,97583.00
2024-02-21T22:03:44.632Z,97583.44
2024-02-21T22:06:17.333Z,97578.78
2024-02-21T22:08:56.034Z,97579.00
2024-02-21T22:11:25.390Z,97580.31
2024-02-21T22:13:55.921Z,97563.44
2024-02-21T22:16:25.481Z,97561.06
2024-02-21T22:18:56.873Z,97567.25
2024-02-21T22:21:30.836Z,97550.16
2024-02-21T22:24:00.162Z,97551.63
2024-02-21T22:26:29.770Z,97551.06
2024-02-21T22:29:02.169Z,97542.56
2024-02-21T22:31:32.985Z,97550.59
2024-02-21T22:34:04.576Z,97546.59
2024-02-21T22:36:42.555Z,97541.97
2024-02-21T22:39:11.475Z,97526.16
2024-02-21T22:41:40.534Z,97528.56
2024-02-21T22:44:10.941Z,97535.34
2024-02-21T22:46:41.383Z,97523.00
2024-02-21T22:49:10.952Z,97523.31
2024-02-21T22:51:42.714Z,97524.00
2024-02-21T22:54:12.315Z,97522.94
2024-02-21T22:56:41.088Z,97527.84
2024-02-21T22:59:12.021Z,97523.38
2024-02-21T23:01:40.941Z,97518.63
2024-02-21T23:04:16.004Z,97516.75
2024-02-21T23:06:48.612Z,97514.88
2024-02-21T23:09:20.930Z,97506.94
2024-02-21T23:11:52.434Z,97504.59
2024-02-21T23:14:25.997Z,97500.50
2024-02-21T23:16:56.304Z,97502.84
2024-02-21T23:19:27.371Z,97493.16
2024-02-21T23:22:00.880Z,97489.41
2024-02-21T23:24:30.540Z,97488.41
2024-02-21T23:27:05.365Z,97480.59
2024-02-21T23:29:38.388Z,97474.88
2024-02-21T23:32:08.321Z,97467.97
2024-02-21T23:34:40.318Z,97467.25
2024-02-21T23:37:19.503Z,97465.19
2024-02-21T23:39:51.666Z,97455.63
2024-02-21T23:42:23.651Z,97456.69
2024-02-21T23:44:59.273Z,97452.44
2024-02-21T23:47:29.667Z,97443.94
2024-02-21T23:49:59.889Z,97441.84
2024-02-21T23:52:31.023Z,97439.31
2024-02-21T23:55:03.600Z,97435.09
2024-02-21T23:57:35.417Z,97429.97
